Terminal Aerodrome Forecast
Issued by NWS

Current Version | Previous Version | Text Only | Print | Product List | Glossary On
Versions: 1 2 3 4 5 6 7 8 9 10 11 12
445
FTUS45 KPIH 102320
TAFSUN
TAF
KSUN 102320Z 1100/1124 13007KT P6SM FEW090
     FM110300 31008KT P6SM FEW008 SCT090 SCT120
     FM111900 13007KT P6SM BKN090 BKN150
      AMD LTD TO CLD VIS AND WIND 1106/1114=

USA.gov is the U.S. government's official web portal to all federal, state and local government web resources and services.